KAFN/AFN METAR and TAF weather

Enter ICAO airport designator
Station Type Date Time Source
KAFN METAR 2019/08/19 22:52 UTC NOAA

KAFN 192252Z AUTO 00000KT 10SM CLR 26/21 A2997 RMK AO2 SLP147 T02560206


Station Type Date Time Source
KAFN Decoded METAR 2019/08/19 22:52 UTC NOAA

JAFFREY MUNI-SILVER RANCH, NH, United States (KAFN) 42-48N 72-00W 313M
Aug 19, 2019 - 06:52 PM EDT / 2019.08.19 2252 UTC
Wind: Calm:0
Visibility: 10 mile(s):0
Sky conditions: clear
Temperature: 78.1 F (25.6 C)
Dew Point: 69.1 F (20.6 C)
Relative Humidity: 73%
Pressure (altimeter): 29.97 in. Hg (1014 hPa)
ob: KAFN 192252Z AUTO 00000KT 10SM CLR 26/21 A2997 RMK AO2 SLP147 T02560206
cycle: 23

Station Type Date Time Source
KAFN TAF UTC NOAA

Error!

Example: see airport list